Time;durP1;ratioP1;P1;durP2;ratioP2;P2;SDS_P1;SDS_P2;PMS_P1;PMS_P2;Temp;Humidity;BMP_temperature;BMP_pressure;BME280_temperature;BME280_humidity;BME280_pressure;Samples;Min_cycle;Max_cycle;Signal;HPM_P1;HPM_P2
2022/01/11 04:32:10;;;;;;;29.93;17.00;;;;;;;7.42;59.00;100066.88;7407470;23;20230;-83
2022/01/11 04:35:32;;;;;;;33.43;18.50;;;;;;;7.29;58.80;100091.41;6819137;29;20211;-83
2022/01/11 04:38:54;;;;;;;34.87;17.30;;;;;;;6.98;59.02;100086.56;6812938;29;20221;-83
2022/01/11 04:42:16;;;;;;;36.67;19.60;;;;;;;6.56;59.76;100069.31;6792621;29;20847;-82
2022/01/11 04:45:37;;;;;;;40.87;21.47;;;;;;;6.88;60.28;100094.66;6792604;29;20265;-82
2022/01/11 04:49:07;;;;;;;40.30;21.07;;;;;;;6.74;60.48;100103.22;6790997;29;20575;-82
2022/01/11 05:03:00;;;;;;;39.90;21.63;;;;;;;6.63;60.77;100095.38;7245027;23;20283;-78
2022/01/11 05:06:23;;;;;;;41.00;21.63;;;;;;;6.73;61.11;100116.75;6775546;29;20216;-78
2022/01/11 05:09:44;;;;;;;35.63;20.13;;;;;;;6.39;61.32;100046.00;6788946;29;20699;-78
2022/01/11 05:13:06;;;;;;;33.13;20.57;;;;;;;5.98;61.03;99944.72;6781406;29;20223;-78
2022/01/11 05:16:28;;;;;;;36.23;19.87;;;;;;;6.59;60.52;100048.44;6790121;29;20212;-78
2022/01/11 05:19:50;;;;;;;35.33;20.43;;;;;;;6.77;60.71;100070.75;6789875;29;20219;-78
2022/01/11 05:23:14;;;;;;;30.93;19.23;;;;;;;7.24;60.15;100090.19;6765816;29;20226;-79
2022/01/11 05:26:37;;;;;;;32.57;18.97;;;;;;;6.66;59.60;99998.59;6764698;29;20304;-78
2022/01/11 05:29:58;;;;;;;29.73;19.03;;;;;;;7.29;59.60;100110.19;6765139;29;20220;-78
2022/01/11 05:33:20;;;;;;;32.03;19.90;;;;;;;7.24;59.42;100123.22;6765398;29;20226;-78
2022/01/11 05:36:42;;;;;;;30.87;18.07;;;;;;;6.70;60.29;100098.28;6764393;29;20225;-78
2022/01/11 05:40:07;;;;;;;36.57;20.07;;;;;;;6.50;60.62;100051.16;6764894;29;20218;-78
2022/01/11 05:43:29;;;;;;;45.17;21.57;;;;;;;5.88;61.23;99981.41;6764842;29;20218;-79
2022/01/11 05:46:50;;;;;;;36.83;20.67;;;;;;;6.54;61.49;100092.75;6764961;29;20674;-79
2022/01/11 05:50:15;;;;;;;43.00;20.77;;;;;;;6.71;61.64;100141.03;6765078;29;20232;-78
2022/01/11 05:53:37;;;;;;;43.77;22.13;;;;;;;6.46;62.14;100132.81;6747677;29;20227;-78
2022/01/11 05:57:03;;;;;;;42.20;21.67;;;;;;;6.61;62.58;100148.25;6764866;29;20210;-79
2022/01/11 06:00:25;;;;;;;42.03;22.27;;;;;;;6.29;61.89;100055.91;6764834;29;20214;-78
2022/01/11 06:03:47;;;;;;;54.87;24.40;;;;;;;7.00;61.82;100155.13;6764330;29;20220;-79
2022/01/11 06:07:08;;;;;;;42.70;25.10;;;;;;;6.75;61.97;100112.09;6765088;29;20222;-78
2022/01/11 06:10:33;;;;;;;48.33;25.83;;;;;;;6.22;61.83;100017.31;6764680;29;20589;-78
2022/01/11 06:13:56;;;;;;;51.07;25.17;;;;;;;6.90;61.01;100122.16;6764006;29;20230;-79
2022/01/11 06:17:18;;;;;;;47.60;23.80;;;;;;;7.12;61.42;100159.28;6764758;29;20213;-79
2022/01/11 06:20:39;;;;;;;46.43;23.93;;;;;;;7.25;60.25;100132.94;6764844;29;20210;-79
2022/01/11 06:24:02;;;;;;;45.70;23.43;;;;;;;7.53;60.26;100180.19;6763967;29;20225;-79
2022/01/11 06:27:24;;;;;;;49.50;22.80;;;;;;;7.36;60.00;100180.19;6764695;29;20228;-79
2022/01/11 06:30:48;;;;;;;37.87;22.13;;;;;;;7.49;59.78;100175.28;6765117;29;20259;-79
2022/01/11 06:34:10;;;;;;;40.27;21.63;;;;;;;7.04;59.76;100100.22;6763528;29;20758;-79
2022/01/11 06:37:32;;;;;;;42.37;24.03;;;;;;;6.86;59.75;100088.63;6764099;29;20226;-79
2022/01/11 06:40:54;;;;;;;39.10;20.83;;;;;;;7.42;59.96;100183.09;6763695;29;20217;-79
2022/01/11 06:44:15;;;;;;;45.67;23.17;;;;;;;6.80;60.37;100099.94;6763119;29;20213;-79
2022/01/11 06:47:38;;;;;;;48.40;20.73;;;;;;;7.18;59.31;100091.63;6762908;29;20224;-79
2022/01/11 06:51:00;;;;;;;38.10;21.17;;;;;;;7.43;59.38;100197.38;6764328;29;20245;-79
2022/01/11 06:54:22;;;;;;;43.40;21.93;;;;;;;6.92;59.83;100120.19;6764319;29;20218;-79
2022/01/11 06:57:44;;;;;;;49.30;24.17;;;;;;;7.54;59.12;100200.66;6769730;29;20218;-79
2022/01/11 07:01:05;;;;;;;47.30;25.20;;;;;;;6.65;59.59;100042.47;6770567;29;20223;-79
2022/01/11 07:04:28;;;;;;;46.83;24.10;;;;;;;7.72;58.77;100201.50;6769646;29;20209;-79
2022/01/11 07:07:50;;;;;;;39.77;23.73;;;;;;;7.66;59.05;100202.13;6770494;29;20220;-80
2022/01/11 07:11:12;;;;;;;49.40;25.70;;;;;;;7.29;59.21;100152.25;6721755;29;20245;-79
2022/01/11 07:14:34;;;;;;;57.60;27.90;;;;;;;7.53;59.67;100198.13;6769801;29;20231;-80
2022/01/11 07:17:56;;;;;;;54.53;26.27;;;;;;;7.52;59.69;100204.50;6769875;29;20219;-79
2022/01/11 07:21:19;;;;;;;50.50;25.70;;;;;;;7.61;59.44;100225.06;6770275;29;20205;-79
2022/01/11 07:24:41;;;;;;;50.23;24.00;;;;;;;7.46;59.73;100226.56;6752976;29;20219;-78
2022/01/11 07:28:04;;;;;;;83.13;30.77;;;;;;;5.69;60.28;100005.53;6769560;29;20215;-78
2022/01/11 07:31:27;;;;;;;56.00;26.73;;;;;;;7.16;60.85;100248.34;6769371;29;20240;-78
2022/01/11 07:34:48;;;;;;;58.97;27.13;;;;;;;7.22;61.18;100228.97;6768862;29;20343;-76
2022/01/11 07:38:12;;;;;;;67.00;27.33;;;;;;;7.17;61.09;100240.16;6774371;29;20207;-77
2022/01/11 07:41:34;;;;;;;67.57;28.63;;;;;;;6.45;60.88;100134.66;6779413;29;20570;-77
2022/01/11 07:44:55;;;;;;;75.80;30.87;;;;;;;6.86;61.96;100233.38;6784335;29;20204;-75
2022/01/11 07:48:17;;;;;;;69.73;29.47;;;;;;;6.67;62.65;100224.56;6784048;29;20205;-75
2022/01/11 07:51:39;;;;;;;65.20;28.47;;;;;;;7.15;61.26;100220.69;6782026;29;20232;-75
2022/01/11 07:55:02;;;;;;;66.73;29.03;;;;;;;7.04;61.14;100161.88;6794804;29;20220;-76
2022/01/11 07:58:25;;;;;;;65.70;30.20;;;;;;;6.66;61.32;100139.78;6784756;29;20222;-77
2022/01/11 08:01:47;;;;;;;69.97;30.83;;;;;;;7.19;60.23;100157.69;6792372;29;20218;-77
2022/01/11 08:05:09;;;;;;;57.30;27.30;;;;;;;6.83;60.72;100174.69;6774280;29;20219;-77
2022/01/11 08:08:31;;;;;;;56.87;28.03;;;;;;;7.84;59.64;100253.97;6773114;29;20580;-78
2022/01/11 08:11:56;;;;;;;57.03;27.73;;;;;;;6.49;60.72;100117.28;6781791;29;20228;-78
2022/01/11 08:15:18;;;;;;;49.73;25.50;;;;;;;7.31;60.33;100179.78;6790462;29;20210;-77
2022/01/11 08:18:40;;;;;;;43.23;24.93;;;;;;;7.84;59.90;100259.34;6777562;29;20205;-78
2022/01/11 08:22:01;;;;;;;50.20;25.27;;;;;;;7.98;59.75;100269.59;6794119;29;20214;-77
2022/01/11 08:25:24;;;;;;;49.40;24.60;;;;;;;7.31;59.44;100169.88;6793850;29;20215;-82
2022/01/11 08:28:47;;;;;;;54.10;25.10;;;;;;;7.81;60.10;100270.41;6793460;29;20211;-77
2022/01/11 08:32:09;;;;;;;55.40;26.63;;;;;;;7.62;59.67;100272.38;6778240;29;20229;-77
2022/01/11 08:35:31;;;;;;;44.70;24.37;;;;;;;7.98;59.67;100274.94;6779853;29;20213;-78
2022/01/11 08:38:53;;;;;;;41.30;23.20;;;;;;;7.33;60.40;100232.31;6780313;29;20200;-78
2022/01/11 08:42:15;;;;;;;35.83;22.07;;;;;;;7.45;60.84;100274.03;6780162;29;20494;-80
2022/01/11 08:45:38;;;;;;;39.90;23.97;;;;;;;6.91;61.57;100225.75;6776867;29;20206;-78
2022/01/11 08:49:01;;;;;;;36.27;22.73;;;;;;;7.13;60.99;100193.16;6767726;29;20208;-78
2022/01/11 08:52:23;;;;;;;36.90;21.77;;;;;;;6.94;60.49;100166.44;6774831;29;20243;-78
2022/01/11 08:55:52;;;;;;;41.57;23.50;;;;;;;6.98;60.22;100165.16;6779444;29;20214;-90
2022/01/11 08:59:14;;;;;;;50.03;25.17;;;;;;;7.74;60.61;100280.06;6782106;29;20205;-80
2022/01/11 09:02:37;;;;;;;47.23;25.97;;;;;;;7.04;60.36;100175.28;6778133;29;20226;-78
2022/01/11 09:05:59;;;;;;;43.97;23.53;;;;;;;7.35;60.74;100302.75;6792585;29;20208;-79
2022/01/11 09:09:21;;;;;;;40.97;23.40;;;;;;;7.37;61.08;100265.03;6790215;29;20663;-77
2022/01/11 09:12:43;;;;;;;37.00;22.73;;;;;;;7.01;61.35;100242.63;6776913;29;20240;-77
2022/01/11 09:16:06;;;;;;;43.50;23.60;;;;;;;7.35;60.91;100254.44;6780741;29;20221;-77
2022/01/11 09:19:29;;;;;;;44.37;26.50;;;;;;;7.58;60.87;100284.41;6790978;29;20243;-76
2022/01/11 09:22:51;;;;;;;39.30;23.90;;;;;;;7.26;60.77;100204.38;6792525;29;20210;-80
2022/01/11 09:26:13;;;;;;;38.00;23.93;;;;;;;7.29;60.29;100204.09;6775907;29;20220;-77
2022/01/11 09:29:38;;;;;;;36.90;22.67;;;;;;;8.20;59.83;100313.97;6792671;29;20216;-77
2022/01/11 09:33:01;;;;;;;38.57;22.67;;;;;;;7.65;59.41;100199.59;6792475;29;20699;-78
2022/01/11 09:36:24;;;;;;;38.07;23.40;;;;;;;7.44;60.16;100241.97;6792198;29;20218;-77
2022/01/11 09:39:47;;;;;;;43.60;27.87;;;;;;;7.74;60.94;100308.75;6792589;29;20203;-77
2022/01/11 09:43:09;;;;;;;37.70;23.70;;;;;;;8.04;60.12;100306.56;6792344;29;20235;-77
2022/01/11 09:46:31;;;;;;;35.17;22.40;;;;;;;7.44;60.33;100204.41;6791912;29;20352;-78
2022/01/11 09:49:53;;;;;;;35.43;21.60;;;;;;;8.30;59.43;100301.31;6792184;29;20223;-78
2022/01/11 09:53:17;;;;;;;37.80;22.97;;;;;;;8.51;60.39;100309.88;6772863;29;20235;-80
2022/01/11 09:56:39;;;;;;;36.07;23.03;;;;;;;8.81;59.48;100318.34;6766552;29;20207;-78
2022/01/11 10:00:02;;;;;;;38.67;25.57;;;;;;;8.06;60.40;100287.59;6765918;29;20600;-78
2022/01/11 10:03:23;;;;;;;33.07;22.27;;;;;;;8.05;60.29;100192.75;6765482;29;20685;-78
2022/01/11 10:06:53;;;;;;;36.50;23.10;;;;;;;8.58;59.61;100200.72;6765734;29;20582;-79
2022/01/11 10:10:19;;;;;;;32.90;21.43;;;;;;;8.70;58.04;100205.69;6766129;29;20229;-80
2022/01/11 10:13:44;;;;;;;34.27;22.17;;;;;;;8.45;58.46;100193.09;6765137;29;20238;-80
2022/01/11 10:17:10;;;;;;;35.37;21.37;;;;;;;9.03;58.12;100329.44;6765904;29;20208;-80
2022/01/11 10:20:32;;;;;;;31.67;21.77;;;;;;;8.71;58.32;100215.44;6765526;29;20207;-79
2022/01/11 10:23:54;;;;;;;33.10;20.97;;;;;;;9.13;57.11;100261.22;6765365;29;20209;-79
2022/01/11 10:27:19;;;;;;;32.07;21.33;;;;;;;7.79;57.81;100089.00;6768239;29;20683;-79
2022/01/11 10:30:41;;;;;;;29.30;21.07;;;;;;;8.87;58.08;100298.03;6769617;29;20647;-79
2022/01/11 10:34:05;;;;;;;40.90;21.67;;;;;;;8.43;58.04;100256.06;6770349;29;20245;-79
2022/01/11 10:37:33;;;;;;;37.60;25.47;;;;;;;8.90;58.52;100265.47;6770134;29;20220;-76
2022/01/11 10:40:55;;;;;;;34.07;22.20;;;;;;;8.38;57.72;100196.56;6779828;29;20209;-77
2022/01/11 10:44:52;;;;;;;35.47;23.23;;;;;;;9.11;57.54;100307.13;6778030;29;20213;-78
2022/01/11 10:48:17;;;;;;;35.90;23.07;;;;;;;8.89;57.08;100194.69;6780206;29;20299;-78
2022/01/11 10:51:39;;;;;;;34.40;21.97;;;;;;;8.95;56.40;100179.78;6791984;29;20215;-78
2022/01/11 10:55:02;;;;;;;38.97;23.50;;;;;;;8.93;56.54;100201.44;6794868;29;20665;-78
2022/01/11 10:58:25;;;;;;;33.97;21.50;;;;;;;9.04;56.82;100190.41;6795596;29;20220;-79
2022/01/11 11:01:48;;;;;;;35.87;22.57;;;;;;;9.43;56.59;100204.97;6795313;29;20224;-82
2022/01/11 11:05:15;;;;;;;25.43;19.73;;;;;;;10.38;54.55;100255.50;6795269;29;20214;-77
2022/01/11 11:08:40;;;;;;;29.23;19.60;;;;;;;10.44;54.19;100299.81;6794411;29;20218;-77
2022/01/11 11:12:16;;;;;;;27.23;19.63;;;;;;;9.85;53.91;100209.28;6783266;29;20241;-77
2022/01/11 11:15:40;;;;;;;31.03;18.23;;;;;;;10.06;54.90;100262.72;6779185;29;20653;-77
2022/01/11 11:19:04;;;;;;;22.97;14.70;;;;;;;10.16;53.36;100285.00;6777339;29;20348;-77
2022/01/11 11:22:27;;;;;;;19.33;13.27;;;;;;;9.46;52.29;100196.59;6783815;29;20687;-77
2022/01/11 11:25:49;;;;;;;20.53;13.20;;;;;;;10.37;52.06;100294.28;6783871;29;20210;-74
2022/01/11 11:29:12;;;;;;;18.07;11.30;;;;;;;10.67;50.74;100247.72;6778706;29;20212;-77
2022/01/11 11:32:35;;;;;;;16.27;11.67;;;;;;;11.07;49.75;100279.19;6770652;29;20231;-78
2022/01/11 11:35:58;;;;;;;16.87;12.70;;;;;;;10.81;49.26;100222.75;6769107;29;20216;-87
2022/01/11 11:39:22;;;;;;;19.00;12.40;;;;;;;11.21;48.55;100294.69;6790393;29;20209;-77
2022/01/11 11:42:44;;;;;;;14.73;11.30;;;;;;;11.07;48.79;100290.84;6782817;29;20214;-76
2022/01/11 11:46:08;;;;;;;16.00;11.43;;;;;;;11.04;48.21;100295.75;6768788;29;20212;-79
2022/01/11 11:49:47;;;;;;;16.17;11.30;;;;;;;10.66;48.84;100272.16;6767638;29;20216;-75
2022/01/11 11:53:20;;;;;;;13.03;10.23;;;;;;;10.70;48.81;100262.72;6764328;29;20232;-76
2022/01/11 11:56:44;;;;;;;11.10;8.40;;;;;;;10.89;46.61;100254.25;6768529;29;20224;-75
2022/01/11 12:00:10;;;;;;;11.83;9.70;;;;;;;10.69;49.64;100290.72;6768757;29;20226;-75
2022/01/11 12:03:31;;;;;;;12.77;8.93;;;;;;;11.08;47.41;100288.97;6768668;29;20393;-76
2022/01/11 12:06:55;;;;;;;7.00;6.10;;;;;;;11.25;46.32;100283.38;6768397;29;20216;-75
2022/01/11 12:10:27;;;;;;;8.83;6.50;;;;;;;10.91;44.59;100269.28;6768492;29;20207;-76
2022/01/11 12:13:50;;;;;;;7.53;5.40;;;;;;;10.12;45.35;100278.22;6768352;29;20246;-77
2022/01/11 12:17:24;;;;;;;7.17;5.97;;;;;;;10.41;46.26;100279.44;6768660;29;20230;-77
2022/01/11 12:20:50;;;;;;;6.77;5.20;;;;;;;10.15;43.69;100218.63;6787574;29;20464;-78
2022/01/11 12:24:12;;;;;;;5.30;4.67;;;;;;;10.16;43.33;100223.81;6777764;29;20212;-76
2022/01/11 12:28:00;;;;;;;6.67;5.57;;;;;;;10.43;43.52;100271.16;6776465;29;21350;-77
2022/01/11 12:31:25;;;;;;;10.17;5.93;;;;;;;10.06;44.04;100198.06;6775538;29;20226;-76
2022/01/11 12:34:59;;;;;;;5.77;5.03;;;;;;;10.57;43.34;100222.78;6782058;29;20218;-77
2022/01/11 12:38:22;;;;;;;6.37;5.40;;;;;;;10.45;44.00;100237.63;6784814;29;20205;-77
2022/01/11 12:41:44;;;;;;;6.10;5.20;;;;;;;9.54;46.23;100264.78;6778085;29;20218;-77
2022/01/11 12:49:03;;;;;;;4.57;3.70;;;;;;;9.00;44.87;100232.06;6767359;29;20262;-77
2022/01/11 12:52:26;;;;;;;6.47;4.30;;;;;;;8.77;46.21;100208.59;6780404;29;20235;-77
2022/01/11 12:55:47;;;;;;;4.40;3.93;;;;;;;8.59;45.34;100267.78;6789689;29;20249;-76
2022/01/11 12:59:09;;;;;;;5.17;4.23;;;;;;;9.47;45.69;100260.19;6793363;29;20667;-77
2022/01/11 13:02:34;;;;;;;5.83;4.57;;;;;;;9.48;44.38;100233.13;6792832;29;20233;-76
2022/01/11 13:05:56;;;;;;;4.53;3.20;;;;;;;9.00;43.91;100232.06;6788828;29;20491;-76
2022/01/11 13:09:18;;;;;;;4.20;3.73;;;;;;;9.61;43.69;100244.25;6767366;29;20218;-76
2022/01/11 13:12:41;;;;;;;4.33;3.93;;;;;;;10.06;43.11;100254.66;6767076;29;20239;-76
2022/01/11 13:16:03;;;;;;;4.90;4.37;;;;;;;9.81;42.12;100234.88;6766883;29;20599;-76
2022/01/11 13:19:26;;;;;;;4.87;4.13;;;;;;;10.15;41.51;100245.56;6766880;29;20650;-76
2022/01/11 13:23:05;;;;;;;5.13;4.30;;;;;;;10.24;41.97;100250.78;6767381;29;20210;-77
2022/01/11 13:26:28;;;;;;;4.73;4.07;;;;;;;9.77;41.08;100251.53;6750465;29;20223;-77
2022/01/11 13:29:51;;;;;;;6.90;4.77;;;;;;;9.07;42.51;100142.47;6778488;29;20274;-80
2022/01/11 13:33:23;;;;;;;4.63;4.23;;;;;;;9.81;41.82;100237.56;6780478;29;20291;-77
2022/01/11 13:36:48;;;;;;;6.63;4.87;;;;;;;8.77;43.99;100233.63;6778450;29;20202;-76
2022/01/11 13:40:11;;;;;;;6.07;4.60;;;;;;;9.28;43.88;100273.91;6783096;29;20221;-76
2022/01/11 13:43:35;;;;;;;6.10;5.23;;;;;;;9.76;42.51;100272.25;6791675;29;20296;-77
2022/01/11 13:46:59;;;;;;;5.60;5.00;;;;;;;9.20;42.96;100290.00;6793197;29;20220;-88
2022/01/11 13:50:21;;;;;;;7.03;5.10;;;;;;;9.26;42.73;100247.16;6792786;29;20600;-88
2022/01/11 13:53:47;;;;;;;5.80;4.73;;;;;;;8.93;44.25;100276.75;6793137;29;20621;-86
2022/01/11 13:57:13;;;;;;;6.83;4.90;;;;;;;8.79;43.67;100296.13;6793637;29;20203;-86
2022/01/11 14:00:36;;;;;;;6.27;5.10;;;;;;;8.49;43.01;100162.19;6792678;29;20205;-85
2022/01/11 14:04:09;;;;;;;6.33;4.67;;;;;;;9.92;41.85;100253.41;6792001;29;20222;-85
2022/01/11 14:07:32;;;;;;;5.77;4.37;;;;;;;9.33;41.84;100209.69;6804468;28;20198;-90
2022/01/11 14:11:05;;;;;;;5.97;4.93;;;;;;;9.54;42.41;100212.75;6811378;28;20202;-90
2022/01/11 14:14:29;;;;;;;4.50;4.10;;;;;;;8.71;42.20;100134.75;6808835;29;20235;-93
2022/01/11 14:17:52;;;;;;;4.77;4.30;;;;;;;8.50;42.45;100067.13;6797145;29;20213;-95
2022/01/11 14:21:17;;;;;;;4.73;4.30;;;;;;;9.03;41.55;100210.25;6795463;29;20207;-93
2022/01/11 14:24:50;;;;;;;4.93;4.33;;;;;;;8.59;43.00;100253.47;6794106;29;20226;-91
2022/01/11 14:28:16;;;;;;;5.90;5.00;;;;;;;8.20;44.84;100269.13;6794930;29;20257;-92
2022/01/11 14:31:38;;;;;;;4.90;4.40;;;;;;;7.94;44.74;100184.94;6794954;29;20235;-93
2022/01/11 14:35:04;;;;;;;8.07;5.00;;;;;;;7.55;44.37;100057.41;6794366;29;20229;-92
2022/01/11 21:31:10;;;;;;;9.10;6.97;;;;;;;7.43;46.08;100527.41;6832248;29;20662;-85
2022/01/11 21:56:00;;;;;;;6.70;5.70;;;;;;;5.70;50.84;100476.31;6510608;30;20221;-85
2022/01/11 21:59:21;;;;;;;8.63;6.57;;;;;;;6.13;49.56;100500.19;6510320;30;20269;-84
